createdAt,value
2017-09-02T00:00:13.226Z,87.20
2017-09-02T00:02:41.479Z,87.30
2017-09-02T00:05:09.762Z,87.50
2017-09-02T00:07:38.079Z,88.00
2017-09-02T00:10:06.384Z,87.60
2017-09-02T00:12:34.682Z,87.40
2017-09-02T00:15:03.814Z,87.50
2017-09-02T00:17:32.095Z,87.60
2017-09-02T00:20:00.396Z,88.20
2017-09-02T00:22:28.651Z,88.00
2017-09-02T00:24:56.966Z,88.30
2017-09-02T00:27:25.205Z,88.40
2017-09-02T00:29:53.465Z,87.90
2017-09-02T00:32:21.789Z,88.00
2017-09-02T00:34:50.035Z,88.10
2017-09-02T00:37:18.338Z,88.10
2017-09-02T00:39:46.579Z,88.10
2017-09-02T00:42:14.856Z,87.20
2017-09-02T00:44:43.124Z,87.20
2017-09-02T00:47:11.404Z,87.60
2017-09-02T00:49:39.665Z,87.80
2017-09-02T00:52:07.975Z,88.70
2017-09-02T00:54:36.241Z,88.50
2017-09-02T00:57:04.497Z,88.50
2017-09-02T00:59:32.773Z,88.40
2017-09-02T01:02:01.015Z,88.10
2017-09-02T01:04:29.304Z,88.10
2017-09-02T01:06:57.586Z,87.50
2017-09-02T01:09:25.884Z,87.00
2017-09-02T01:11:54.198Z,86.70
2017-09-02T01:14:22.433Z,86.50
2017-09-02T01:16:50.699Z,86.90
2017-09-02T01:19:19.848Z,87.20
2017-09-02T01:21:48.119Z,87.50
2017-09-02T01:24:16.394Z,88.50
2017-09-02T01:26:44.631Z,88.80
2017-09-02T01:29:12.870Z,88.70
2017-09-02T01:31:41.155Z,88.40
2017-09-02T01:34:09.419Z,88.30
2017-09-02T01:36:38.237Z,88.40
2017-09-02T01:39:07.434Z,88.60
2017-09-02T01:41:35.676Z,88.90
2017-09-02T01:44:03.916Z,89.40
2017-09-02T01:46:32.198Z,88.60
2017-09-02T01:49:00.478Z,88.40
2017-09-02T01:51:28.749Z,88.00
2017-09-02T01:53:56.982Z,88.70
2017-09-02T01:56:25.230Z,88.70
2017-09-02T01:58:53.524Z,89.00
2017-09-02T02:01:21.762Z,89.30
2017-09-02T02:03:50.017Z,89.30
2017-09-02T02:06:18.322Z,89.20
2017-09-02T02:08:47.329Z,88.30
2017-09-02T02:11:15.596Z,88.30
2017-09-02T02:13:43.875Z,88.60
2017-09-02T02:16:12.117Z,88.20
2017-09-02T02:18:40.497Z,88.50
2017-09-02T02:21:08.774Z,88.20
2017-09-02T02:23:37.056Z,88.10
2017-09-02T02:26:05.309Z,88.50
2017-09-02T02:28:33.576Z,88.40
2017-09-02T02:31:01.854Z,88.30
2017-09-02T02:33:30.128Z,87.70
2017-09-02T02:35:58.390Z,87.10
2017-09-02T02:38:26.663Z,87.30
2017-09-02T02:40:54.891Z,87.70
2017-09-02T02:43:23.142Z,87.80
2017-09-02T02:45:51.467Z,87.30
2017-09-02T02:48:19.755Z,87.20
2017-09-02T02:50:48.012Z,87.40
2017-09-02T02:53:16.262Z,87.70
2017-09-02T02:55:44.542Z,87.50
2017-09-02T02:58:12.750Z,87.50
2017-09-02T03:00:41.010Z,87.10
2017-09-02T03:03:09.271Z,86.80
2017-09-02T03:05:37.538Z,86.30
2017-09-02T03:08:05.805Z,86.20
2017-09-02T03:10:34.068Z,85.20
2017-09-02T03:13:02.326Z,84.60
2017-09-02T03:15:30.577Z,85.60
2017-09-02T03:17:58.837Z,85.40
2017-09-02T03:20:27.091Z,84.90
2017-09-02T03:22:55.369Z,84.70
2017-09-02T03:25:23.619Z,85.70
2017-09-02T03:27:51.864Z,85.40
2017-09-02T03:30:20.838Z,84.70
2017-09-02T03:32:49.063Z,85.10
2017-09-02T03:35:17.311Z,84.70
2017-09-02T03:37:45.575Z,84.80
2017-09-02T03:40:13.826Z,84.90
2017-09-02T03:42:42.076Z,85.10
2017-09-02T03:45:10.341Z,84.40
2017-09-02T03:47:38.613Z,84.20
2017-09-02T03:50:06.862Z,84.70
2017-09-02T03:52:35.126Z,84.90
2017-09-02T03:55:03.383Z,85.40
2017-09-02T03:57:31.643Z,87.00
2017-09-02T03:59:59.907Z,86.90
2017-09-02T04:02:28.182Z,86.70
2017-09-02T04:04:56.449Z,88.10
2017-09-02T04:07:24.678Z,88.20
2017-09-02T04:09:52.943Z,88.40
2017-09-02T04:12:21.198Z,88.90
2017-09-02T04:14:49.426Z,89.00
2017-09-02T04:17:17.696Z,87.70
2017-09-02T04:19:45.959Z,89.00
2017-09-02T04:22:14.213Z,90.00
2017-09-02T04:24:42.486Z,90.00
2017-09-02T04:27:10.766Z,90.00
2017-09-02T04:29:39.027Z,89.60
2017-09-02T04:32:07.288Z,88.90
2017-09-02T04:34:35.541Z,87.70
2017-09-02T04:37:03.814Z,87.90
2017-09-02T04:39:32.050Z,89.60
2017-09-02T04:42:00.304Z,89.60
2017-09-02T04:44:28.591Z,89.40
2017-09-02T04:46:56.826Z,89.60
2017-09-02T04:49:25.086Z,89.60
2017-09-02T04:51:53.353Z,90.10
2017-09-02T04:54:21.604Z,90.20
2017-09-02T04:56:49.847Z,89.60
2017-09-02T04:59:18.104Z,90.00
2017-09-02T05:01:47.203Z,89.80
2017-09-02T05:04:15.430Z,90.00
2017-09-02T05:06:43.695Z,90.20
2017-09-02T05:09:11.918Z,90.20
2017-09-02T05:11:40.194Z,90.10
2017-09-02T05:14:08.490Z,90.00
2017-09-02T05:16:36.733Z,89.40
2017-09-02T05:19:05.803Z,89.30
2017-09-02T05:21:34.091Z,89.30
2017-09-02T05:24:02.336Z,89.60
2017-09-02T05:26:30.590Z,88.80
2017-09-02T05:28:58.840Z,89.30
2017-09-02T05:31:27.098Z,89.80
2017-09-02T05:33:55.337Z,89.00
2017-09-02T05:36:23.595Z,88.60
2017-09-02T05:38:51.837Z,89.30
2017-09-02T05:41:20.129Z,88.90
2017-09-02T05:43:49.372Z,88.80
2017-09-02T05:46:17.682Z,88.70
2017-09-02T05:48:46.874Z,89.30
2017-09-02T05:51:15.135Z,89.40
2017-09-02T05:53:43.427Z,88.30
2017-09-02T05:56:11.675Z,87.70
2017-09-02T05:58:39.929Z,87.10
2017-09-02T06:01:08.184Z,87.40
2017-09-02T06:03:36.427Z,86.40
2017-09-02T06:06:04.812Z,88.50
2017-09-02T06:08:33.845Z,88.30
2017-09-02T06:11:02.853Z,88.60
2017-09-02T06:13:31.094Z,88.60
2017-09-02T06:15:59.369Z,87.90
2017-09-02T06:18:28.578Z,88.80
2017-09-02T06:20:56.830Z,88.20
2017-09-02T06:23:25.099Z,87.50
2017-09-02T06:25:53.343Z,87.00
2017-09-02T06:28:21.646Z,87.80
2017-09-02T06:30:49.895Z,86.40
2017-09-02T06:33:18.192Z,87.10
2017-09-02T06:35:46.412Z,86.20
2017-09-02T06:38:14.671Z,88.00
2017-09-02T06:40:42.935Z,86.20
2017-09-02T06:43:11.183Z,86.80
2017-09-02T06:45:39.458Z,84.80
2017-09-02T06:48:07.724Z,85.30
2017-09-02T06:50:36.026Z,86.80
2017-09-02T06:53:04.543Z,85.50
2017-09-02T06:55:32.800Z,86.00
2017-09-02T06:58:01.013Z,86.20
2017-09-02T07:00:29.273Z,86.50
2017-09-02T07:02:57.559Z,87.20
2017-09-02T07:05:25.766Z,86.70
2017-09-02T07:07:54.032Z,87.00
2017-09-02T07:10:22.272Z,86.00
2017-09-02T07:12:50.684Z,87.30
2017-09-02T07:15:18.969Z,86.80
2017-09-02T07:17:47.235Z,87.00
2017-09-02T07:20:15.513Z,87.90
2017-09-02T07:22:43.756Z,88.00
2017-09-02T07:25:12.016Z,87.60
2017-09-02T07:27:40.249Z,85.80
2017-09-02T07:30:08.505Z,87.10
2017-09-02T07:32:36.769Z,87.20
2017-09-02T07:35:05.064Z,86.90
2017-09-02T07:37:33.322Z,85.80
2017-09-02T07:40:01.702Z,84.60
2017-09-02T07:42:29.967Z,84.70
2017-09-02T07:44:58.246Z,84.00
2017-09-02T07:47:26.546Z,83.00
2017-09-02T07:49:54.831Z,85.20
2017-09-02T07:52:23.184Z,85.70
2017-09-02T07:54:51.439Z,84.00
2017-09-02T07:57:19.743Z,82.10
2017-09-02T07:59:48.048Z,83.00
2017-09-02T08:02:16.321Z,84.10
2017-09-02T08:04:44.620Z,85.30
2017-09-02T08:07:12.893Z,83.30
2017-09-02T08:09:41.173Z,82.30
2017-09-02T08:12:09.410Z,81.70
2017-09-02T08:14:37.654Z,81.50
2017-09-02T08:17:05.961Z,81.50
2017-09-02T08:19:34.187Z,81.40
2017-09-02T08:22:02.478Z,81.70
2017-09-02T08:24:30.758Z,81.80
2017-09-02T08:26:59.049Z,78.00
2017-09-02T08:29:27.341Z,77.50
2017-09-02T08:31:55.596Z,76.50
2017-09-02T08:34:23.850Z,77.50
2017-09-02T08:36:52.091Z,76.40
2017-09-02T08:39:20.385Z,79.10
2017-09-02T08:41:48.643Z,77.70
2017-09-02T08:44:16.883Z,79.20
2017-09-02T08:46:45.143Z,78.30
2017-09-02T08:49:13.438Z,78.80
2017-09-02T08:51:41.706Z,78.70
2017-09-02T08:54:09.978Z,77.70
2017-09-02T08:56:38.295Z,79.70
2017-09-02T08:59:06.531Z,78.60
2017-09-02T09:01:34.814Z,78.70
2017-09-02T09:04:03.075Z,76.70
2017-09-02T09:06:31.315Z,80.30
2017-09-02T09:08:59.607Z,80.50
2017-09-02T09:11:27.831Z,80.40
2017-09-02T09:13:56.119Z,81.40
2017-09-02T09:16:24.372Z,83.10
2017-09-02T09:18:52.677Z,81.80
2017-09-02T09:21:20.937Z,81.00
2017-09-02T09:23:49.180Z,81.90
2017-09-02T09:26:17.456Z,82.70
2017-09-02T09:28:45.730Z,81.70
2017-09-02T09:31:13.972Z,80.90
2017-09-02T09:33:42.255Z,79.20
2017-09-02T09:36:10.638Z,80.10
2017-09-02T09:38:38.919Z,80.50
2017-09-02T09:41:07.246Z,82.00
2017-09-02T09:43:35.486Z,81.40
2017-09-02T09:46:03.779Z,80.70
2017-09-02T09:48:32.081Z,79.60
2017-09-02T09:51:00.336Z,78.10
2017-09-02T09:53:28.590Z,79.70
2017-09-02T09:55:56.878Z,79.20
2017-09-02T09:58:25.118Z,78.00
2017-09-02T10:00:53.405Z,78.90
2017-09-02T10:03:21.684Z,79.50
2017-09-02T10:05:49.936Z,81.70
2017-09-02T10:08:18.228Z,82.00
2017-09-02T10:10:46.475Z,79.60
2017-09-02T10:13:14.809Z,79.40
2017-09-02T10:15:43.062Z,78.70
2017-09-02T10:18:11.355Z,79.40
2017-09-02T10:20:39.622Z,77.90
2017-09-02T10:23:07.925Z,77.20
2017-09-02T10:25:36.180Z,78.50
2017-09-02T10:28:04.483Z,77.80
2017-09-02T10:30:32.743Z,78.20
2017-09-02T10:33:01.773Z,76.90
2017-09-02T10:35:30.054Z,76.90
2017-09-02T10:37:58.321Z,77.10
2017-09-02T10:40:26.582Z,76.60
2017-09-02T10:42:54.870Z,77.20
2017-09-02T10:45:23.127Z,76.70
2017-09-02T10:47:51.407Z,75.10
2017-09-02T10:50:19.648Z,75.60
2017-09-02T10:52:48.003Z,73.40
2017-09-02T10:55:16.270Z,70.00
2017-09-02T10:57:44.551Z,71.10
2017-09-02T11:00:12.790Z,71.30
2017-09-02T11:02:41.117Z,67.70
2017-09-02T11:05:09.430Z,67.60
2017-09-02T11:07:37.681Z,69.70
2017-09-02T11:10:06.375Z,68.90
2017-09-02T11:12:34.661Z,66.70
2017-09-02T11:15:02.918Z,66.10
2017-09-02T11:17:31.170Z,69.20
2017-09-02T11:19:59.419Z,67.30
2017-09-02T11:22:27.726Z,67.20
2017-09-02T11:24:55.994Z,65.80
2017-09-02T11:27:25.269Z,65.60
2017-09-02T11:29:53.542Z,65.30
2017-09-02T11:32:21.855Z,65.70
2017-09-02T11:34:50.100Z,65.40
2017-09-02T11:37:18.376Z,65.70
2017-09-02T11:39:46.706Z,65.70
2017-09-02T11:42:14.986Z,64.90
2017-09-02T11:44:43.269Z,67.10
2017-09-02T11:47:11.534Z,64.80
2017-09-02T11:49:39.806Z,65.40
2017-09-02T11:52:08.064Z,64.30
2017-09-02T11:54:36.352Z,65.10
2017-09-02T11:57:04.670Z,63.20
2017-09-02T11:59:32.917Z,64.30
2017-09-02T12:02:01.231Z,63.90
2017-09-02T12:04:29.482Z,63.80
2017-09-02T12:06:57.786Z,65.70
2017-09-02T12:09:26.183Z,66.00
2017-09-02T12:11:54.557Z,67.80
2017-09-02T12:14:22.820Z,69.10
2017-09-02T12:16:51.088Z,68.50
2017-09-02T12:19:19.343Z,68.50
2017-09-02T12:21:47.615Z,68.00
2017-09-02T12:24:15.907Z,69.90
2017-09-02T12:26:44.195Z,70.00
2017-09-02T12:29:12.478Z,69.30
2017-09-02T12:31:40.778Z,68.00
2017-09-02T12:34:09.031Z,67.50
2017-09-02T12:36:37.301Z,67.50
2017-09-02T12:39:05.553Z,67.50
2017-09-02T12:41:33.901Z,66.50
2017-09-02T12:44:02.132Z,66.50
2017-09-02T12:46:30.425Z,65.50
2017-09-02T12:48:58.699Z,65.70
2017-09-02T12:51:26.922Z,64.60
2017-09-02T12:53:55.211Z,63.30
2017-09-02T12:56:23.463Z,63.20
2017-09-02T12:58:51.947Z,63.20
2017-09-02T13:01:20.278Z,62.70
2017-09-02T13:03:48.547Z,65.20
2017-09-02T13:06:16.843Z,63.20
2017-09-02T13:08:45.103Z,63.90
2017-09-02T13:11:13.358Z,63.60
2017-09-02T13:13:41.638Z,65.40
2017-09-02T13:16:09.908Z,65.30
2017-09-02T13:18:38.175Z,65.80
2017-09-02T13:21:06.434Z,64.40
2017-09-02T13:23:34.727Z,64.30
2017-09-02T13:26:02.980Z,60.80
2017-09-02T13:28:31.294Z,60.90
2017-09-02T13:30:59.549Z,58.70
2017-09-02T13:33:28.576Z,60.30
2017-09-02T13:35:56.876Z,60.00
2017-09-02T13:38:25.146Z,61.10
2017-09-02T13:40:53.372Z,58.90
2017-09-02T13:43:21.631Z,59.50
2017-09-02T13:45:49.965Z,59.60
2017-09-02T13:48:18.212Z,58.80
2017-09-02T13:50:46.486Z,59.80
2017-09-02T13:53:15.675Z,59.30
2017-09-02T13:55:43.919Z,62.70
2017-09-02T13:58:12.160Z,62.40
2017-09-02T14:00:40.412Z,61.50
2017-09-02T14:03:08.647Z,60.80
2017-09-02T14:05:36.929Z,60.20
2017-09-02T14:08:05.178Z,63.60
2017-09-02T14:10:33.426Z,63.50
2017-09-02T14:13:01.659Z,64.40
2017-09-02T14:15:29.911Z,61.40
2017-09-02T14:17:58.173Z,61.80
2017-09-02T14:20:26.485Z,63.70
2017-09-02T14:22:54.697Z,63.50
2017-09-02T14:25:22.944Z,65.90
2017-09-02T14:27:51.206Z,65.70
2017-09-02T14:30:19.476Z,65.80
2017-09-02T14:32:47.783Z,66.00
2017-09-02T14:35:16.020Z,65.70
2017-09-02T14:37:44.283Z,64.20
2017-09-02T14:40:12.546Z,64.60
2017-09-02T14:42:40.766Z,63.90
2017-09-02T14:45:09.039Z,65.60
2017-09-02T14:47:37.252Z,65.00
2017-09-02T14:50:05.535Z,64.90
2017-09-02T14:52:33.762Z,65.00
2017-09-02T14:55:02.041Z,64.60
2017-09-02T14:57:30.289Z,63.80
2017-09-02T14:59:58.566Z,62.20
2017-09-02T15:02:26.925Z,63.60
2017-09-02T15:04:55.181Z,63.80
2017-09-02T15:07:23.407Z,63.50
2017-09-02T15:09:51.705Z,62.80
2017-09-02T15:12:20.005Z,61.30
2017-09-02T15:14:48.231Z,61.50
2017-09-02T15:17:16.509Z,59.50
2017-09-02T15:19:44.766Z,59.80
2017-09-02T15:22:13.054Z,59.60
2017-09-02T15:24:41.315Z,58.20
2017-09-02T15:27:09.537Z,57.90
2017-09-02T15:29:37.780Z,57.50
2017-09-02T15:32:06.082Z,58.20
2017-09-02T15:34:34.340Z,58.00
2017-09-02T15:37:02.605Z,57.50
2017-09-02T15:39:31.195Z,57.80
2017-09-02T15:41:59.427Z,57.00
2017-09-02T15:44:27.695Z,59.30
2017-09-02T15:46:55.977Z,57.70
2017-09-02T15:49:24.221Z,59.40
2017-09-02T15:51:52.551Z,57.30
2017-09-02T15:54:20.788Z,60.10
2017-09-02T15:56:49.065Z,58.10
2017-09-02T15:59:17.412Z,57.40
2017-09-02T16:01:45.655Z,57.20
2017-09-02T16:04:13.907Z,58.20
2017-09-02T16:06:42.161Z,58.20
2017-09-02T16:09:10.448Z,58.20
2017-09-02T16:11:38.816Z,64.30
2017-09-02T16:14:07.083Z,65.30
2017-09-02T16:16:35.558Z,65.30
2017-09-02T16:19:03.819Z,61.30
2017-09-02T16:21:32.391Z,62.80
2017-09-02T16:24:00.602Z,64.50
2017-09-02T16:26:28.871Z,61.20
2017-09-02T16:28:57.114Z,62.80
2017-09-02T16:31:25.415Z,63.10
2017-09-02T16:33:53.670Z,63.00
2017-09-02T16:36:21.960Z,61.50
2017-09-02T16:38:50.219Z,60.10
2017-09-02T16:41:18.452Z,61.40
2017-09-02T16:43:46.735Z,64.00
2017-09-02T16:46:15.015Z,67.40
2017-09-02T16:48:43.280Z,66.60
2017-09-02T16:51:11.573Z,66.40
2017-09-02T16:53:39.834Z,66.00
2017-09-02T16:56:08.106Z,67.20
2017-09-02T16:58:36.391Z,68.80
2017-09-02T17:01:04.672Z,67.80
2017-09-02T17:03:33.038Z,71.10
2017-09-02T17:06:01.307Z,70.90
2017-09-02T17:08:29.622Z,73.50
2017-09-02T17:10:57.917Z,71.40
2017-09-02T17:13:26.172Z,71.90
2017-09-02T17:15:54.468Z,71.30
2017-09-02T17:18:22.766Z,71.10
2017-09-02T17:20:51.034Z,72.50
2017-09-02T17:23:19.303Z,73.80
2017-09-02T17:25:47.619Z,74.30
2017-09-02T17:28:16.177Z,73.60
2017-09-02T17:30:44.439Z,73.50
2017-09-02T17:33:12.705Z,74.30
2017-09-02T17:35:40.967Z,76.30
2017-09-02T17:38:09.206Z,76.20
2017-09-02T17:40:37.445Z,76.00
2017-09-02T17:43:05.724Z,77.90
2017-09-02T17:45:34.001Z,78.60
2017-09-02T17:48:02.256Z,78.40
2017-09-02T17:50:30.561Z,79.00
2017-09-02T17:52:58.788Z,79.20
2017-09-02T17:55:27.060Z,79.20
2017-09-02T17:57:55.326Z,78.90
2017-09-02T18:00:23.600Z,78.50
2017-09-02T18:02:51.857Z,77.40
2017-09-02T18:05:20.106Z,78.50
2017-09-02T18:07:48.427Z,79.10
2017-09-02T18:10:16.696Z,78.80
2017-09-02T18:12:44.995Z,78.30
2017-09-02T18:15:13.253Z,78.20
2017-09-02T18:17:41.504Z,79.10
2017-09-02T18:20:09.779Z,79.20
2017-09-02T18:22:38.066Z,79.00
2017-09-02T18:25:06.360Z,79.40
2017-09-02T18:27:34.634Z,80.30
2017-09-02T18:30:02.909Z,79.20
2017-09-02T18:32:31.176Z,79.30
2017-09-02T18:34:59.495Z,80.10
2017-09-02T18:37:27.725Z,79.40
2017-09-02T18:39:56.107Z,79.80
2017-09-02T18:42:24.376Z,79.60
2017-09-02T18:44:52.676Z,79.60
2017-09-02T18:47:20.923Z,79.70
2017-09-02T18:49:49.233Z,80.30
2017-09-02T18:52:17.515Z,80.70
2017-09-02T18:54:45.802Z,80.80
2017-09-02T18:57:14.089Z,80.80
2017-09-02T18:59:42.343Z,81.30
2017-09-02T19:02:10.639Z,81.80
2017-09-02T19:04:38.914Z,83.00
2017-09-02T19:07:07.518Z,83.30
2017-09-02T19:09:36.154Z,84.00
2017-09-02T19:12:04.419Z,83.70
2017-09-02T19:14:32.684Z,83.80
2017-09-02T19:17:01.143Z,83.90
2017-09-02T19:19:29.456Z,84.50
2017-09-02T19:21:57.728Z,85.00
2017-09-02T19:24:25.963Z,85.30
2017-09-02T19:26:55.476Z,85.70
2017-09-02T19:29:23.755Z,85.50
2017-09-02T19:31:52.766Z,85.10
2017-09-02T19:34:21.033Z,84.90
2017-09-02T19:36:49.320Z,84.80
2017-09-02T19:39:17.593Z,84.70
2017-09-02T19:41:45.921Z,84.40
2017-09-02T19:44:14.229Z,84.50
2017-09-02T19:46:42.611Z,84.90
2017-09-02T19:49:10.924Z,84.90
2017-09-02T19:51:39.188Z,85.20
2017-09-02T19:54:09.014Z,84.60
2017-09-02T19:56:37.282Z,85.30
2017-09-02T19:59:05.558Z,85.20
2017-09-02T20:01:33.819Z,85.60
2017-09-02T20:04:02.638Z,85.60
2017-09-02T20:06:31.233Z,86.00
2017-09-02T20:08:59.509Z,86.60
2017-09-02T20:11:27.935Z,85.90
2017-09-02T20:13:56.222Z,86.50
2017-09-02T20:16:24.524Z,86.60
2017-09-02T20:18:52.771Z,87.00
2017-09-02T20:21:21.298Z,86.80
2017-09-02T20:23:49.753Z,86.50
2017-09-02T20:26:18.201Z,86.20
2017-09-02T20:28:46.483Z,86.50
2017-09-02T20:31:15.831Z,86.70
2017-09-02T20:33:44.387Z,86.90
2017-09-02T20:36:12.667Z,87.00
2017-09-02T20:38:40.933Z,87.00
2017-09-02T20:41:09.597Z,87.40
2017-09-02T20:43:37.972Z,87.20
2017-09-02T20:46:06.264Z,87.40
2017-09-02T20:48:34.530Z,87.80
2017-09-02T20:51:02.795Z,87.40
2017-09-02T20:53:31.337Z,87.40
2017-09-02T20:55:59.621Z,87.00
2017-09-02T20:58:27.881Z,86.60
2017-09-02T21:00:56.163Z,86.80
2017-09-02T21:03:24.465Z,86.70
2017-09-02T21:05:52.922Z,86.70
2017-09-02T21:08:21.245Z,87.40
2017-09-02T21:10:49.528Z,87.30
2017-09-02T21:13:17.757Z,87.30
2017-09-02T21:15:46.053Z,87.30
2017-09-02T21:18:15.123Z,86.70
2017-09-02T21:20:43.376Z,86.80
2017-09-02T21:23:11.675Z,86.70
2017-09-02T21:25:39.925Z,86.80
2017-09-02T21:28:08.216Z,87.20
2017-09-02T21:30:36.519Z,87.50
2017-09-02T21:33:05.741Z,88.30
2017-09-02T21:35:34.012Z,87.70
2017-09-02T21:38:02.256Z,87.90
2017-09-02T21:40:30.647Z,88.10
2017-09-02T21:42:58.854Z,88.10
2017-09-02T21:45:27.139Z,88.00
2017-09-02T21:47:55.421Z,87.70
2017-09-02T21:50:23.663Z,87.90
2017-09-02T21:52:51.952Z,88.30
2017-09-02T21:55:20.209Z,88.40
2017-09-02T21:57:48.455Z,88.50
2017-09-02T22:00:16.859Z,88.30
2017-09-02T22:02:45.135Z,88.50
2017-09-02T22:05:13.442Z,88.30
2017-09-02T22:07:41.682Z,88.40
2017-09-02T22:10:09.916Z,88.30
2017-09-02T22:12:38.203Z,88.00
2017-09-02T22:15:06.478Z,88.10
2017-09-02T22:17:34.805Z,88.00
2017-09-02T22:20:03.123Z,87.90
2017-09-02T22:22:31.365Z,88.30
2017-09-02T22:24:59.745Z,87.70
2017-09-02T22:27:28.519Z,87.70
2017-09-02T22:29:56.812Z,87.80
2017-09-02T22:32:25.835Z,88.10
2017-09-02T22:34:54.122Z,88.10
2017-09-02T22:37:22.379Z,87.80
2017-09-02T22:39:50.693Z,88.30
2017-09-02T22:42:19.009Z,88.60
2017-09-02T22:44:47.255Z,88.70
2017-09-02T22:47:15.562Z,88.30
2017-09-02T22:49:43.834Z,88.00
2017-09-02T22:52:12.081Z,88.10
2017-09-02T22:54:40.352Z,88.00
2017-09-02T22:57:08.654Z,88.10
2017-09-02T22:59:36.908Z,88.10
2017-09-02T23:02:05.149Z,88.40
2017-09-02T23:04:33.442Z,88.00
2017-09-02T23:07:01.720Z,87.80
2017-09-02T23:09:29.983Z,87.80
2017-09-02T23:11:58.244Z,87.70
2017-09-02T23:14:26.510Z,88.00
2017-09-02T23:16:54.782Z,88.00
2017-09-02T23:19:23.028Z,88.10
2017-09-02T23:21:51.346Z,87.90
2017-09-02T23:24:19.600Z,87.90
2017-09-02T23:26:47.902Z,87.90
2017-09-02T23:29:16.169Z,88.70
2017-09-02T23:31:44.464Z,87.90
2017-09-02T23:34:12.727Z,88.20
2017-09-02T23:36:41.006Z,88.40
2017-09-02T23:39:09.258Z,88.20
2017-09-02T23:41:37.525Z,88.20
2017-09-02T23:44:05.777Z,88.20
2017-09-02T23:46:34.358Z,88.20
2017-09-02T23:49:03.397Z,88.20
2017-09-02T23:51:31.656Z,88.10
2017-09-02T23:53:59.900Z,88.00
2017-09-02T23:56:28.178Z,88.10
2017-09-02T23:58:56.453Z,87.80
